Airfield :
LOGIN :

Register | Disclaimer

   EN    FR    IT 

 










Legend :    VFR   Marginal VFR   IFR   Intensive IFR   Very Intensive IFR
Visi :
Ceiling :
>= 8 km
>= 3000ft
5 to 8 km
1000 to 3000 ft
1500m to 5 km
500 to 1000 ft
800 to 1500m
200 to 500 ft
< 800m
< 200 ft
Symbols :   Thunderstorms  Fog  Heavy snow  Heavy precipitations  Wind > 20 kt
SIGMETs :     Misc.  Thunderstorms  Icing  Turbulence  Mountain Waves  Volcanic Ashes






- Airport Elevation : 2077 ft
- IATA code : FMM


EDJA - Memmingen

CURRENT METAR :
  • 281520Z AUTO 01009KT 9999 // FEW044/// SCT210/// 18/08 Q1026

EXPIRED METARs :
  • 281450Z 02012KT 350V060 9999 FEW041 17/08 Q1026
  • 281420Z 02011KT 9999 SCT044 18/08 Q1027
  • 281350Z 02011KT 350V060 9999 FEW039 SCT046 17/07 Q1027
  • 281320Z 03011KT 360V060 9999 FEW035 SCT053TCU 17/08 Q1027
  • 281250Z 03012KT 010V070 9999 BKN039TCU 16/08 Q1027

TAF TAF EDJA
Valid from the 28 at 15:00 until the 29 at 00:00 UTC


281400Z 2815/2824 05007KT 9999 SCT045
PROB30
TEMPO 2815/2816 03012KT SHRA BKN030CB



MET'MAP, your aeronautical weather chart ! - Copyright ORBIFLY December 2007 - Disclaimer

ORBIFLY MET'MAP TEAM :

Programming & Development : Alexandra Zaïnal
Concept & original design : Baudouin d'Aumeries
Assistance for programming : Marc-Olivier Méhu
Technical & hardware support : Manuel Goepfert

Contact : metmap@orbifly.com




SOURCES & CREDITS :

   NOAA